createdAt,value
2023-01-23T00:00:30.263Z,1.35
2023-01-23T00:02:56.873Z,1.38
2023-01-23T00:05:23.259Z,1.38
2023-01-23T00:07:49.626Z,1.40
2023-01-23T00:10:17.785Z,1.36
2023-01-23T00:12:44.626Z,1.36
2023-01-23T00:15:11.281Z,1.42
2023-01-23T00:17:37.785Z,1.36
2023-01-23T00:20:04.426Z,1.30
2023-01-23T00:22:30.806Z,1.29
2023-01-23T00:24:57.109Z,1.32
2023-01-23T00:27:24.748Z,1.26
2023-01-23T00:29:52.086Z,1.26
2023-01-23T00:32:18.416Z,1.25
2023-01-23T00:34:46.278Z,1.25
2023-01-23T00:37:13.094Z,1.27
2023-01-23T00:39:39.814Z,1.26
2023-01-23T00:42:06.177Z,1.27
2023-01-23T00:44:33.851Z,1.29
2023-01-23T00:47:00.429Z,1.39
2023-01-23T00:49:26.898Z,1.38
2023-01-23T00:51:53.231Z,1.49
2023-01-23T00:54:19.767Z,1.43
2023-01-23T00:56:46.052Z,1.44
2023-01-23T00:59:12.405Z,1.40
2023-01-23T01:01:40.270Z,1.41
2023-01-23T01:04:06.723Z,1.37
2023-01-23T01:06:33.016Z,1.48
2023-01-23T01:08:59.505Z,1.48
2023-01-23T01:11:25.956Z,1.53
2023-01-23T01:13:52.578Z,1.43
2023-01-23T01:16:19.008Z,1.43
2023-01-23T01:18:46.675Z,1.39
2023-01-23T01:21:17.326Z,1.35
2023-01-23T01:23:43.651Z,1.37
2023-01-23T01:26:10.428Z,1.44
2023-01-23T01:28:37.668Z,1.41
2023-01-23T01:31:05.352Z,1.39
2023-01-23T01:33:31.730Z,1.36
2023-01-23T01:35:59.379Z,1.31
2023-01-23T01:38:25.705Z,1.30
2023-01-23T01:40:52.115Z,1.29
2023-01-23T01:43:20.238Z,1.31
2023-01-23T01:46:08.267Z,1.31
2023-01-23T01:48:36.629Z,1.35
2023-01-23T01:51:09.359Z,1.38
2023-01-23T01:53:37.395Z,1.38
2023-01-23T01:56:03.984Z,1.36
2023-01-23T01:58:30.632Z,1.35
2023-01-23T02:00:57.117Z,1.37
2023-01-23T02:03:24.170Z,1.35
2023-01-23T02:05:50.577Z,1.34
2023-01-23T02:08:21.351Z,1.35
2023-01-23T02:10:47.775Z,1.36
2023-01-23T02:13:24.913Z,1.43
2023-01-23T02:15:51.886Z,1.40
2023-01-23T02:18:18.408Z,1.44
2023-01-23T02:20:44.884Z,1.43
2023-01-23T02:23:17.282Z,1.45
2023-01-23T02:25:51.464Z,1.48
2023-01-23T02:28:17.790Z,1.55
2023-01-23T02:30:44.724Z,1.58
2023-01-23T02:33:11.597Z,1.63
2023-01-23T02:35:39.012Z,1.52
2023-01-23T02:38:05.924Z,1.44
2023-01-23T02:40:32.748Z,1.49
2023-01-23T02:43:00.484Z,1.51
2023-01-23T02:45:26.841Z,1.58
2023-01-23T02:47:53.184Z,1.60
2023-01-23T02:50:19.640Z,1.58
2023-01-23T02:52:46.141Z,1.49
2023-01-23T02:55:12.463Z,1.49
2023-01-23T02:57:38.896Z,1.46
2023-01-23T03:00:07.424Z,1.42
2023-01-23T03:02:33.758Z,1.40
2023-01-23T03:05:00.127Z,1.39
2023-01-23T03:07:26.455Z,1.42
2023-01-23T03:09:52.782Z,1.42
2023-01-23T03:12:19.085Z,1.49
2023-01-23T03:14:45.416Z,1.50
2023-01-23T03:17:13.073Z,1.48
2023-01-23T03:19:39.372Z,1.51
2023-01-23T03:22:05.709Z,1.48
2023-01-23T03:24:33.602Z,1.42
2023-01-23T03:27:00.139Z,1.42
2023-01-23T03:29:26.687Z,1.41
2023-01-23T03:31:53.047Z,1.41
2023-01-23T03:34:20.759Z,1.43
2023-01-23T03:36:47.067Z,1.41
2023-01-23T03:39:15.291Z,1.38
2023-01-23T03:41:41.828Z,1.41
2023-01-23T03:44:08.221Z,1.39
2023-01-23T03:46:34.528Z,1.42
2023-01-23T03:49:00.817Z,1.48
2023-01-23T03:51:28.447Z,1.46
2023-01-23T03:53:54.750Z,1.50
2023-01-23T03:56:21.057Z,1.50
2023-01-23T03:58:47.371Z,1.45
2023-01-23T04:01:13.714Z,1.51
2023-01-23T04:03:40.047Z,1.50
2023-01-23T04:06:06.356Z,1.46
2023-01-23T04:08:34.067Z,1.50
2023-01-23T04:11:00.948Z,1.48
2023-01-23T04:13:27.251Z,1.49
2023-01-23T04:15:53.561Z,1.52
2023-01-23T04:18:19.853Z,1.55
2023-01-23T04:20:46.177Z,1.56
2023-01-23T04:23:12.497Z,1.52
2023-01-23T04:25:40.367Z,1.51
2023-01-23T04:28:06.733Z,1.53
2023-01-23T04:30:33.141Z,1.51
2023-01-23T04:32:59.605Z,1.53
2023-01-23T04:35:25.919Z,1.52
2023-01-23T04:37:52.220Z,1.51
2023-01-23T04:40:18.887Z,1.50
2023-01-23T04:42:46.749Z,1.52
2023-01-23T04:45:13.076Z,1.57
2023-01-23T04:47:39.476Z,1.55
2023-01-23T04:50:06.045Z,1.62
2023-01-23T04:52:32.355Z,1.56
2023-01-23T04:54:58.778Z,1.55
2023-01-23T04:57:25.068Z,1.57
2023-01-23T04:59:52.747Z,1.54
2023-01-23T05:02:19.119Z,1.52
2023-01-23T05:04:45.560Z,1.52
2023-01-23T05:07:12.291Z,1.51
2023-01-23T05:09:38.676Z,1.50
2023-01-23T05:12:05.315Z,1.52
2023-01-23T05:14:31.760Z,1.51
2023-01-23T05:16:59.428Z,1.50
2023-01-23T05:19:25.724Z,1.50
2023-01-23T05:21:52.048Z,1.54
2023-01-23T05:24:18.407Z,1.51
2023-01-23T05:26:44.798Z,1.50
2023-01-23T05:29:11.139Z,1.52
2023-01-23T05:31:37.576Z,1.57
2023-01-23T05:34:05.298Z,1.53
2023-01-23T05:36:31.640Z,1.59
2023-01-23T05:38:58.006Z,1.53
2023-01-23T05:41:25.719Z,1.56
2023-01-23T05:43:52.125Z,1.55
2023-01-23T05:46:18.472Z,1.53
2023-01-23T05:48:47.847Z,1.54
2023-01-23T05:51:15.579Z,1.49
2023-01-23T05:53:41.904Z,1.51
2023-01-23T05:56:08.522Z,1.52
2023-01-23T05:58:34.843Z,1.49
2023-01-23T06:01:01.944Z,1.52
2023-01-23T06:03:28.521Z,1.52
2023-01-23T06:05:54.860Z,1.57
2023-01-23T06:08:22.545Z,1.56
2023-01-23T06:10:48.837Z,1.56
2023-01-23T06:13:15.143Z,1.60
2023-01-23T06:15:42.059Z,1.63
2023-01-23T06:18:08.433Z,1.66
2023-01-23T06:20:34.768Z,1.63
2023-01-23T06:23:01.072Z,1.63
2023-01-23T06:25:28.761Z,1.65
2023-01-23T06:27:55.199Z,1.64
2023-01-23T06:30:22.100Z,1.63
2023-01-23T06:32:48.627Z,1.61
2023-01-23T06:35:14.990Z,1.66
2023-01-23T06:37:41.554Z,1.70
2023-01-23T06:40:08.557Z,1.70
2023-01-23T06:42:36.200Z,1.71
2023-01-23T06:45:02.619Z,1.70
2023-01-23T06:47:28.907Z,1.73
2023-01-23T06:49:55.206Z,1.71
2023-01-23T06:52:21.497Z,1.73
2023-01-23T06:54:47.789Z,1.70
2023-01-23T06:57:14.105Z,1.69
2023-01-23T06:59:41.728Z,1.72
2023-01-23T07:02:08.569Z,1.69
2023-01-23T07:04:34.924Z,1.71
2023-01-23T07:07:01.296Z,1.69
2023-01-23T07:09:27.641Z,1.69
2023-01-23T07:11:54.000Z,1.68
2023-01-23T07:14:20.298Z,1.67
2023-01-23T07:16:48.116Z,1.67
2023-01-23T07:19:14.466Z,1.67
2023-01-23T07:21:40.760Z,1.67
2023-01-23T07:24:07.156Z,1.65
2023-01-23T07:26:33.441Z,1.67
2023-01-23T07:28:59.770Z,1.71
2023-01-23T07:31:26.122Z,1.70
2023-01-23T07:33:53.778Z,1.71
2023-01-23T07:36:20.112Z,1.73
2023-01-23T07:38:46.421Z,1.70
2023-01-23T07:41:12.747Z,1.71
2023-01-23T07:43:39.043Z,1.76
2023-01-23T07:46:05.524Z,1.77
2023-01-23T07:48:31.979Z,1.75
2023-01-23T07:51:02.790Z,1.73
2023-01-23T07:53:29.154Z,1.75
2023-01-23T07:55:55.467Z,1.77
2023-01-23T07:58:21.780Z,1.76
2023-01-23T08:00:48.106Z,1.77
2023-01-23T08:03:14.512Z,1.77
2023-01-23T08:05:42.913Z,1.79
2023-01-23T08:08:13.721Z,1.78
2023-01-23T08:10:40.286Z,1.80
2023-01-23T08:13:06.595Z,1.80
2023-01-23T08:15:32.954Z,1.83
2023-01-23T08:17:59.310Z,1.81
2023-01-23T08:20:25.785Z,1.82
2023-01-23T08:22:52.073Z,1.82
2023-01-23T08:25:19.729Z,1.85
2023-01-23T08:27:46.056Z,1.87
2023-01-23T08:30:12.597Z,1.89
2023-01-23T08:32:38.937Z,1.91
2023-01-23T08:35:05.812Z,1.94
2023-01-23T08:37:32.105Z,1.92
2023-01-23T08:39:58.424Z,1.92
2023-01-23T08:42:26.075Z,1.92
2023-01-23T08:44:52.452Z,1.96
2023-01-23T08:47:18.788Z,1.97
2023-01-23T08:49:45.110Z,1.95
2023-01-23T08:52:11.415Z,2.03
2023-01-23T08:54:37.781Z,2.04
2023-01-23T08:57:04.098Z,2.09
2023-01-23T08:59:31.795Z,2.08
2023-01-23T09:01:58.530Z,2.15
2023-01-23T09:04:24.934Z,2.14
2023-01-23T09:06:51.250Z,2.19
2023-01-23T09:09:17.610Z,2.22
2023-01-23T09:11:43.925Z,2.25
2023-01-23T09:14:10.218Z,2.27
2023-01-23T09:16:37.883Z,2.30
2023-01-23T09:19:04.232Z,2.34
2023-01-23T09:21:30.573Z,2.33
2023-01-23T09:23:56.963Z,2.38
2023-01-23T09:26:23.248Z,2.39
2023-01-23T09:28:49.556Z,2.40
2023-01-23T09:31:15.885Z,2.42
2023-01-23T09:33:43.606Z,2.41
2023-01-23T09:36:10.097Z,2.41
2023-01-23T09:38:36.428Z,2.47
2023-01-23T09:41:07.813Z,2.50
2023-01-23T09:43:38.016Z,2.53
2023-01-23T09:46:07.802Z,2.54
2023-01-23T09:48:39.620Z,2.54
2023-01-23T09:51:11.874Z,2.54
2023-01-23T09:53:39.453Z,2.55
2023-01-23T09:56:12.360Z,2.57
2023-01-23T09:58:42.104Z,2.58
2023-01-23T10:01:10.103Z,2.63
2023-01-23T10:03:37.086Z,2.65
2023-01-23T10:06:12.179Z,2.61
2023-01-23T10:08:42.763Z,2.64
2023-01-23T10:11:13.455Z,2.65
2023-01-23T10:13:47.522Z,2.67
2023-01-23T10:16:33.251Z,2.73
2023-01-23T10:19:14.885Z,2.77
2023-01-23T10:21:47.187Z,2.79
2023-01-23T10:24:23.928Z,2.80
2023-01-23T10:26:50.544Z,2.86
2023-01-23T10:29:21.941Z,2.86
2023-01-23T10:31:50.053Z,2.86
2023-01-23T10:34:18.340Z,2.86
2023-01-23T10:36:54.797Z,2.87
2023-01-23T10:39:25.063Z,2.88
2023-01-23T10:41:57.492Z,2.88
2023-01-23T10:44:23.925Z,2.91
2023-01-23T10:46:52.217Z,2.90
2023-01-23T10:49:29.463Z,2.90
2023-01-23T10:51:57.361Z,2.90
2023-01-23T10:54:31.917Z,2.89
2023-01-23T10:56:59.721Z,2.89
2023-01-23T10:59:29.093Z,2.95
2023-01-23T11:02:00.265Z,2.96
2023-01-23T11:04:27.368Z,2.98
2023-01-23T11:07:02.089Z,3.01
2023-01-23T11:09:28.429Z,3.05
2023-01-23T11:12:01.714Z,3.03
2023-01-23T11:14:28.288Z,3.07
2023-01-23T11:17:02.256Z,3.05
2023-01-23T11:19:30.657Z,3.06
2023-01-23T11:21:58.076Z,3.04
2023-01-23T11:24:39.271Z,3.03
2023-01-23T11:27:16.985Z,3.02
2023-01-23T11:29:52.965Z,3.01
2023-01-23T11:32:20.648Z,3.01
2023-01-23T11:34:49.395Z,2.93
2023-01-23T11:37:18.928Z,2.90
2023-01-23T11:39:50.701Z,2.93
2023-01-23T11:42:17.051Z,2.94
2023-01-23T11:44:46.336Z,2.96
2023-01-23T11:47:22.829Z,2.94
2023-01-23T11:50:02.776Z,2.98
2023-01-23T11:52:38.175Z,2.93
2023-01-23T11:55:16.852Z,2.91
2023-01-23T11:57:50.352Z,2.93
2023-01-23T12:00:23.145Z,2.96
2023-01-23T12:02:57.224Z,2.98
2023-01-23T12:05:27.184Z,2.98
2023-01-23T12:08:00.363Z,2.97
2023-01-23T12:10:31.207Z,2.98
2023-01-23T12:13:07.152Z,2.97
2023-01-23T12:15:37.972Z,2.94
2023-01-23T12:18:11.360Z,2.98
2023-01-23T12:20:42.830Z,2.96
2023-01-23T12:23:21.524Z,2.93
2023-01-23T12:25:54.012Z,2.97
2023-01-23T12:28:28.530Z,3.01
2023-01-23T12:31:10.570Z,3.01
2023-01-23T12:33:45.699Z,2.98
2023-01-23T12:36:19.307Z,2.96
2023-01-23T12:38:50.292Z,2.97
2023-01-23T12:41:22.108Z,3.01
2023-01-23T12:43:54.186Z,3.00
2023-01-23T12:46:23.924Z,3.03
2023-01-23T12:48:54.030Z,3.03
2023-01-23T12:51:22.071Z,3.00
2023-01-23T12:53:50.709Z,3.06
2023-01-23T12:56:20.918Z,3.08
2023-01-23T12:58:50.450Z,2.98
2023-01-23T13:01:24.162Z,3.03
2023-01-23T13:04:02.245Z,3.07
2023-01-23T13:06:35.144Z,3.06
2023-01-23T13:09:16.704Z,3.06
2023-01-23T13:11:50.457Z,3.08
2023-01-23T13:14:17.710Z,3.07
2023-01-23T13:16:46.153Z,3.09
2023-01-23T13:19:21.097Z,3.14
2023-01-23T13:22:03.004Z,3.12
2023-01-23T13:24:39.487Z,3.18
2023-01-23T13:27:20.739Z,3.18
2023-01-23T13:29:49.776Z,3.16
2023-01-23T13:32:21.255Z,3.16
2023-01-23T13:34:47.642Z,3.18
2023-01-23T13:37:47.158Z,3.18
2023-01-23T13:40:14.820Z,3.17
2023-01-23T13:42:41.192Z,3.13
2023-01-23T13:45:30.682Z,3.13
2023-01-23T14:21:41.371Z,3.07
2023-01-23T14:24:19.848Z,3.04
2023-01-23T14:26:49.592Z,3.08
2023-01-23T14:29:19.910Z,3.10
2023-01-23T14:31:46.350Z,3.02
2023-01-23T14:34:17.996Z,2.94
2023-01-23T14:36:46.159Z,2.97
2023-01-23T14:39:16.346Z,2.93
2023-01-23T14:41:43.776Z,2.91
2023-01-23T14:44:17.372Z,2.91
2023-01-23T14:46:43.820Z,2.92
2023-01-23T14:49:10.937Z,2.96
2023-01-23T14:51:38.655Z,2.98
2023-01-23T14:54:10.389Z,2.97
2023-01-23T14:56:39.260Z,2.94
2023-01-23T14:59:06.929Z,2.92
2023-01-23T15:01:35.623Z,2.89
2023-01-23T15:04:03.012Z,2.93
2023-01-23T15:06:30.842Z,2.93
2023-01-23T15:09:06.097Z,2.92
2023-01-23T15:11:32.906Z,2.93
2023-01-23T15:14:00.571Z,2.96
2023-01-23T15:16:29.734Z,2.93
2023-01-23T15:18:58.269Z,2.92
2023-01-23T15:21:26.487Z,2.91
2023-01-23T15:23:59.262Z,2.91
2023-01-23T15:26:30.597Z,2.93
2023-01-23T15:28:57.633Z,2.92
2023-01-23T15:31:26.200Z,2.93
2023-01-23T15:33:52.880Z,2.88
2023-01-23T15:36:24.591Z,2.88
2023-01-23T15:38:51.322Z,2.89
2023-01-23T15:41:30.119Z,2.86
2023-01-23T15:44:02.107Z,2.87
2023-01-23T15:46:28.589Z,2.88
2023-01-23T15:48:54.926Z,2.88
2023-01-23T15:51:21.232Z,2.88
2023-01-23T15:53:49.182Z,2.88
2023-01-23T15:56:24.139Z,2.88
2023-01-23T15:58:50.445Z,2.85
2023-01-23T16:01:18.281Z,2.84
2023-01-23T16:03:44.662Z,2.83
2023-01-23T16:06:13.825Z,2.85
2023-01-23T16:08:40.711Z,2.83
2023-01-23T16:11:07.086Z,2.83
2023-01-23T16:13:33.423Z,2.84
2023-01-23T16:15:59.957Z,2.83
2023-01-23T16:18:27.734Z,2.85
2023-01-23T16:20:54.316Z,2.83
2023-01-23T16:23:22.183Z,2.84
2023-01-23T16:25:49.273Z,2.86
2023-01-23T16:28:17.165Z,2.84
2023-01-23T16:30:43.544Z,2.83
2023-01-23T16:33:10.148Z,2.84
2023-01-23T16:35:38.039Z,2.82
2023-01-23T16:38:05.101Z,2.82
2023-01-23T16:40:32.105Z,2.83
2023-01-23T16:42:59.332Z,2.84
2023-01-23T16:45:26.938Z,2.82
2023-01-23T16:47:56.870Z,2.83
2023-01-23T16:50:26.216Z,2.82
2023-01-23T16:52:55.272Z,2.84
2023-01-23T16:55:23.290Z,2.86
2023-01-23T16:57:52.011Z,2.83
2023-01-23T17:00:24.945Z,2.84
2023-01-23T17:03:01.658Z,2.84
2023-01-23T17:05:28.134Z,2.85
2023-01-23T17:07:58.564Z,2.81
2023-01-23T17:10:29.881Z,2.81
2023-01-23T17:13:01.105Z,2.86
2023-01-23T17:15:29.004Z,2.89
2023-01-23T17:17:57.103Z,2.87
2023-01-23T17:20:23.385Z,2.88
2023-01-23T17:22:49.716Z,2.89
2023-01-23T17:25:18.774Z,2.86
2023-01-23T17:27:48.699Z,2.86
2023-01-23T17:30:20.138Z,2.85
2023-01-23T17:32:48.772Z,2.88
2023-01-23T17:35:20.014Z,2.85
2023-01-23T17:37:46.533Z,2.86
2023-01-23T17:40:13.481Z,2.86
2023-01-23T17:42:41.168Z,2.87
2023-01-23T17:45:08.624Z,2.90
2023-01-23T17:47:35.050Z,2.89
2023-01-23T17:50:01.372Z,2.88
2023-01-23T17:52:27.718Z,2.89
2023-01-23T17:54:54.056Z,2.89
2023-01-23T17:57:20.429Z,2.88
2023-01-23T17:59:48.184Z,2.87
2023-01-23T18:02:22.536Z,2.89
2023-01-23T18:04:48.977Z,2.87
2023-01-23T18:07:15.333Z,2.84
2023-01-23T18:09:41.689Z,2.87
2023-01-23T18:12:10.557Z,2.90
2023-01-23T18:14:41.768Z,2.89
2023-01-23T18:17:21.647Z,2.89
2023-01-23T18:19:48.467Z,2.86
2023-01-23T18:22:15.001Z,2.86
2023-01-23T18:24:41.671Z,2.87
2023-01-23T18:27:16.121Z,2.88
2023-01-23T18:29:47.429Z,2.84
2023-01-23T18:32:25.517Z,2.85
2023-01-23T18:34:55.199Z,2.85
2023-01-23T18:37:25.682Z,2.84
2023-01-23T18:39:59.273Z,2.84
2023-01-23T18:42:28.980Z,2.84
2023-01-23T18:44:58.076Z,2.82
2023-01-23T18:47:25.971Z,2.84
2023-01-23T18:49:52.539Z,2.83
2023-01-23T18:52:20.929Z,2.84
2023-01-23T18:54:52.353Z,2.78
2023-01-23T18:57:26.782Z,2.78
2023-01-23T18:59:56.371Z,2.81
2023-01-23T19:02:26.132Z,2.84
2023-01-23T19:05:03.916Z,2.85
2023-01-23T19:07:30.490Z,2.85
2023-01-23T19:09:57.266Z,2.85
2023-01-23T19:12:27.384Z,2.85
2023-01-23T19:15:01.515Z,2.84
2023-01-23T19:17:34.996Z,2.84
2023-01-23T19:20:05.054Z,2.85
2023-01-23T19:22:41.349Z,2.83
2023-01-23T19:25:13.894Z,2.90
2023-01-23T19:27:40.304Z,2.85
2023-01-23T19:30:07.265Z,2.84
2023-01-23T19:32:34.048Z,2.83
2023-01-23T19:35:13.408Z,2.84
2023-01-23T19:37:42.016Z,2.83
2023-01-23T19:40:08.834Z,2.83
2023-01-23T19:42:48.865Z,2.81
2023-01-23T19:45:17.277Z,2.81
2023-01-23T19:47:43.632Z,2.81
2023-01-23T19:50:12.998Z,2.83
2023-01-23T19:52:39.317Z,2.81
2023-01-23T19:55:07.319Z,2.84
2023-01-23T19:57:33.653Z,2.83
2023-01-23T19:59:59.998Z,2.86
2023-01-23T20:02:26.360Z,2.83
2023-01-23T20:04:53.214Z,2.88
2023-01-23T20:07:19.555Z,2.85
2023-01-23T20:09:45.912Z,2.84
2023-01-23T20:12:15.352Z,2.84
2023-01-23T20:14:41.683Z,2.79
2023-01-23T20:17:08.909Z,2.81
2023-01-23T20:19:35.262Z,2.79
2023-01-23T20:22:01.594Z,2.81
2023-01-23T20:24:27.973Z,2.83
2023-01-23T20:26:54.344Z,2.82
2023-01-23T20:29:22.244Z,2.79
2023-01-23T20:31:48.590Z,2.79
2023-01-23T20:34:15.010Z,2.79
2023-01-23T20:36:41.377Z,2.82
2023-01-23T20:39:07.856Z,2.81
2023-01-23T20:41:34.186Z,2.81
2023-01-23T20:44:00.542Z,2.80
2023-01-23T20:46:28.363Z,2.80
2023-01-23T20:48:55.210Z,2.82
2023-01-23T20:51:21.536Z,2.78
2023-01-23T20:53:47.849Z,2.72
2023-01-23T20:56:14.835Z,2.73
2023-01-23T20:58:42.060Z,2.75
2023-01-23T21:01:08.369Z,2.78
2023-01-23T21:03:36.347Z,2.79
2023-01-23T21:06:02.737Z,2.74
2023-01-23T21:08:29.071Z,2.76
2023-01-23T21:10:55.418Z,2.74
2023-01-23T21:13:21.718Z,2.73
2023-01-23T21:15:55.699Z,2.72
2023-01-23T21:18:22.105Z,2.72
2023-01-23T21:20:49.808Z,2.73
2023-01-23T21:23:16.119Z,2.75
2023-01-23T21:25:42.664Z,2.76
2023-01-23T21:28:09.025Z,2.73
2023-01-23T21:30:37.692Z,2.72
2023-01-23T21:33:04.489Z,2.74
2023-01-23T21:35:30.804Z,2.74
2023-01-23T21:37:58.497Z,2.73
2023-01-23T21:40:24.819Z,2.74
2023-01-23T21:42:51.177Z,2.74
2023-01-23T21:45:17.534Z,2.75
2023-01-23T21:47:43.858Z,2.67
2023-01-23T21:50:10.961Z,2.70
2023-01-23T21:52:37.297Z,2.70
2023-01-23T21:55:05.660Z,2.63
2023-01-23T21:57:32.006Z,2.70
2023-01-23T21:59:58.348Z,2.71
2023-01-23T22:02:25.026Z,2.68
2023-01-23T22:04:51.337Z,2.66
2023-01-23T22:07:17.642Z,2.68
2023-01-23T22:09:43.962Z,2.68
2023-01-23T22:12:11.685Z,2.69
2023-01-23T22:14:38.009Z,2.71
2023-01-23T22:17:04.288Z,2.72
2023-01-23T22:19:30.654Z,2.70
2023-01-23T22:21:57.187Z,2.71
2023-01-23T22:24:23.758Z,2.68
2023-01-23T22:26:50.101Z,2.62
2023-01-23T22:29:17.852Z,2.63
2023-01-23T22:31:44.310Z,2.65
2023-01-23T22:34:10.767Z,2.65
2023-01-23T22:36:37.161Z,2.67
2023-01-23T22:39:03.800Z,2.67
2023-01-23T22:41:30.294Z,2.66
2023-01-23T22:43:57.042Z,2.68
2023-01-23T22:46:24.738Z,2.68
2023-01-23T22:48:51.735Z,2.69
2023-01-23T22:51:19.065Z,2.69
2023-01-23T22:53:45.395Z,2.65
2023-01-23T22:56:12.313Z,2.68
2023-01-23T22:58:39.079Z,2.69
2023-01-23T23:01:05.972Z,2.68
2023-01-23T23:03:34.472Z,2.68
2023-01-23T23:06:03.310Z,2.69
2023-01-23T23:08:30.065Z,2.70
2023-01-23T23:11:00.108Z,2.71
2023-01-23T23:13:27.008Z,2.77
2023-01-23T23:15:53.343Z,2.75
2023-01-23T23:18:19.657Z,2.74
2023-01-23T23:20:47.409Z,2.77
2023-01-23T23:23:13.751Z,2.71
2023-01-23T23:25:40.088Z,2.70
2023-01-23T23:28:06.395Z,2.76
2023-01-23T23:30:32.745Z,2.74
2023-01-23T23:32:59.060Z,2.75
2023-01-23T23:35:25.359Z,2.77
2023-01-23T23:37:53.171Z,2.79
2023-01-23T23:40:19.586Z,2.78
2023-01-23T23:42:45.906Z,2.79
2023-01-23T23:45:12.237Z,2.75
2023-01-23T23:47:38.516Z,2.80
2023-01-23T23:50:05.228Z,2.81
2023-01-23T23:52:31.553Z,2.80
2023-01-23T23:54:59.226Z,2.77
2023-01-23T23:57:25.524Z,2.79
2023-01-23T23:59:51.830Z,2.75
